createdAt,value
2018-04-07T00:00:08.329Z,7.82
2018-04-07T00:02:34.678Z,7.84
2018-04-07T00:05:01.113Z,7.90
2018-04-07T00:07:27.449Z,7.90
2018-04-07T00:09:53.880Z,7.91
2018-04-07T00:12:20.358Z,7.87
2018-04-07T00:14:46.715Z,7.85
2018-04-07T00:17:13.162Z,7.84
2018-04-07T00:19:39.510Z,7.80
2018-04-07T00:22:05.955Z,7.86
2018-04-07T00:24:32.354Z,7.87
2018-04-07T00:26:58.715Z,7.86
2018-04-07T00:29:25.118Z,7.90
2018-04-07T00:31:51.591Z,7.87
2018-04-07T00:34:17.900Z,7.85
2018-04-07T00:36:44.214Z,7.81
2018-04-07T00:39:10.619Z,7.83
2018-04-07T00:41:36.958Z,7.83
2018-04-07T00:44:03.367Z,7.85
2018-04-07T00:46:29.791Z,7.78
2018-04-07T00:48:56.149Z,7.77
2018-04-07T00:51:22.588Z,7.81
2018-04-07T00:53:48.952Z,7.81
2018-04-07T00:56:15.278Z,7.85
2018-04-07T00:58:41.809Z,7.93
2018-04-07T01:01:08.313Z,7.91
2018-04-07T01:03:34.746Z,7.86
2018-04-07T01:06:01.161Z,7.86
2018-04-07T01:08:27.611Z,7.86
2018-04-07T01:10:54.005Z,7.84
2018-04-07T01:13:20.403Z,7.80
2018-04-07T01:15:46.914Z,7.85
2018-04-07T01:18:13.245Z,7.84
2018-04-07T01:20:39.636Z,7.81
2018-04-07T01:23:06.082Z,7.86
2018-04-07T01:25:32.407Z,7.80
2018-04-07T01:27:58.736Z,7.81
2018-04-07T01:30:25.217Z,7.79
2018-04-07T01:32:51.566Z,7.85
2018-04-07T01:35:17.944Z,7.82
2018-04-07T01:37:44.307Z,7.90
2018-04-07T01:40:10.726Z,7.91
2018-04-07T01:42:37.204Z,7.93
2018-04-07T01:45:03.665Z,7.90
2018-04-07T01:47:30.058Z,7.85
2018-04-07T01:49:56.503Z,7.90
2018-04-07T01:52:22.971Z,7.81
2018-04-07T01:54:49.326Z,7.77
2018-04-07T01:57:15.714Z,7.84
2018-04-07T01:59:42.485Z,7.86
2018-04-07T02:02:08.938Z,7.88
2018-04-07T02:04:35.269Z,7.85
2018-04-07T02:07:01.689Z,7.84
2018-04-07T02:09:28.142Z,7.87
2018-04-07T02:11:54.590Z,7.82
2018-04-07T02:14:21.128Z,7.79
2018-04-07T02:16:47.512Z,7.84
2018-04-07T02:19:13.879Z,7.85
2018-04-07T02:21:40.417Z,7.85
2018-04-07T02:24:06.749Z,7.83
2018-04-07T02:26:33.134Z,7.85
2018-04-07T02:28:59.488Z,7.86
2018-04-07T02:31:25.874Z,7.87
2018-04-07T02:33:52.366Z,7.87
2018-04-07T02:36:18.742Z,7.84
2018-04-07T02:38:45.058Z,7.97
2018-04-07T02:41:11.482Z,7.90
2018-04-07T02:43:37.822Z,7.87
2018-04-07T02:46:04.157Z,7.90
2018-04-07T02:48:30.476Z,7.91
2018-04-07T02:50:56.910Z,7.85
2018-04-07T02:53:23.255Z,7.91
2018-04-07T02:55:49.684Z,7.86
2018-04-07T02:58:16.103Z,7.84
2018-04-07T03:00:42.525Z,7.82
2018-04-07T03:03:08.917Z,7.83
2018-04-07T03:05:35.431Z,7.83
2018-04-07T03:08:01.799Z,7.82
2018-04-07T03:10:28.173Z,7.79
2018-04-07T03:12:54.690Z,7.81
2018-04-07T03:15:21.034Z,7.83
2018-04-07T03:17:47.479Z,7.82
2018-04-07T03:20:13.962Z,7.85
2018-04-07T03:22:40.443Z,7.87
2018-04-07T03:25:06.783Z,7.87
2018-04-07T03:27:33.249Z,7.81
2018-04-07T03:29:59.621Z,7.87
2018-04-07T03:32:26.010Z,7.89
2018-04-07T03:34:53.040Z,7.87
2018-04-07T03:37:19.560Z,7.90
2018-04-07T03:39:46.182Z,7.94
2018-04-07T03:42:12.947Z,8.03
2018-04-07T03:44:39.468Z,7.92
2018-04-07T03:47:05.879Z,7.90
2018-04-07T03:49:32.435Z,7.91
2018-04-07T03:51:58.886Z,7.89
2018-04-07T03:54:25.389Z,7.90
2018-04-07T03:56:51.926Z,7.91
2018-04-07T03:59:18.251Z,7.95
2018-04-07T04:01:44.894Z,8.00
2018-04-07T04:04:11.307Z,7.99
2018-04-07T04:06:37.641Z,7.92
2018-04-07T04:09:04.157Z,7.99
2018-04-07T04:11:30.839Z,8.02
2018-04-07T04:13:57.649Z,7.99
2018-04-07T04:16:24.397Z,7.99
2018-04-07T04:18:50.787Z,8.00
2018-04-07T04:21:17.196Z,8.05
2018-04-07T04:23:43.596Z,8.05
2018-04-07T04:26:10.002Z,8.01
2018-04-07T04:28:36.399Z,8.06
2018-04-07T04:31:02.840Z,8.17
2018-04-07T04:33:29.251Z,8.17
2018-04-07T04:35:55.989Z,8.19
2018-04-07T04:38:22.582Z,8.23
2018-04-07T04:40:49.317Z,8.23
2018-04-07T04:43:16.097Z,8.24
2018-04-07T04:45:42.516Z,8.20
2018-04-07T04:48:08.908Z,8.29
2018-04-07T04:50:35.270Z,8.38
2018-04-07T04:53:01.706Z,8.40
2018-04-07T04:55:28.151Z,8.43
2018-04-07T04:57:54.487Z,8.47
2018-04-07T05:00:20.988Z,8.53
2018-04-07T05:02:47.532Z,8.50
2018-04-07T05:05:14.033Z,8.60
2018-04-07T05:07:40.373Z,8.64
2018-04-07T05:10:06.781Z,8.77
2018-04-07T05:12:33.306Z,8.95
2018-04-07T05:14:59.953Z,9.18
2018-04-07T05:17:26.728Z,9.38
2018-04-07T05:19:53.265Z,9.46
2018-04-07T05:22:19.908Z,9.66
2018-04-07T05:24:46.531Z,9.67
2018-04-07T05:27:13.222Z,9.81
2018-04-07T05:29:39.757Z,9.89
2018-04-07T05:32:06.256Z,9.95
2018-04-07T05:34:32.613Z,9.92
2018-04-07T05:36:59.020Z,9.83
2018-04-07T05:39:25.837Z,9.76
2018-04-07T05:41:52.379Z,9.75
2018-04-07T05:44:18.849Z,9.78
2018-04-07T05:46:45.489Z,9.89
2018-04-07T05:49:12.323Z,9.95
2018-04-07T05:51:38.892Z,10.05
2018-04-07T05:54:05.443Z,10.08
2018-04-07T05:56:32.514Z,10.11
2018-04-07T05:58:59.069Z,10.13
2018-04-07T06:01:25.552Z,10.11
2018-04-07T06:03:52.141Z,10.19
2018-04-07T06:06:19.291Z,10.22
2018-04-07T06:08:46.491Z,10.52
2018-04-07T06:11:13.056Z,10.61
2018-04-07T06:13:39.580Z,10.92
2018-04-07T06:16:06.838Z,10.97
2018-04-07T06:18:33.534Z,11.05
2018-04-07T06:21:00.823Z,11.05
2018-04-07T06:23:27.645Z,11.18
2018-04-07T06:25:55.040Z,11.22
2018-04-07T06:28:21.527Z,11.43
2018-04-07T06:30:47.937Z,11.36
2018-04-07T06:33:14.415Z,11.14
2018-04-07T06:35:40.947Z,11.08
2018-04-07T06:38:07.483Z,11.31
2018-04-07T06:40:33.886Z,11.40
2018-04-07T06:43:00.429Z,11.45
2018-04-07T06:45:27.213Z,11.42
2018-04-07T06:47:53.811Z,11.26
2018-04-07T06:50:20.433Z,11.24
2018-04-07T06:52:47.157Z,11.19
2018-04-07T06:55:13.974Z,11.32
2018-04-07T06:57:40.394Z,11.36
2018-04-07T07:00:06.771Z,11.56
2018-04-07T07:02:33.177Z,11.58
2018-04-07T07:04:59.782Z,11.81
2018-04-07T07:07:26.226Z,11.96
2018-04-07T07:09:52.766Z,12.03
2018-04-07T07:12:19.233Z,12.06
2018-04-07T07:14:45.641Z,12.20
2018-04-07T07:17:12.211Z,12.37
2018-04-07T07:19:39.152Z,12.60
2018-04-07T07:22:06.050Z,12.52
2018-04-07T07:24:32.486Z,12.40
2018-04-07T07:26:58.965Z,12.18
2018-04-07T07:29:25.478Z,12.13
2018-04-07T07:31:51.983Z,12.37
2018-04-07T07:34:20.468Z,12.49
2018-04-07T07:36:47.634Z,12.30
2018-04-07T07:39:15.207Z,12.24
2018-04-07T07:41:42.502Z,12.25
2018-04-07T07:44:09.835Z,12.21
2018-04-07T07:46:36.748Z,12.07
2018-04-07T07:49:03.239Z,12.07
2018-04-07T07:51:29.690Z,12.30
2018-04-07T07:53:57.102Z,12.57
2018-04-07T07:56:23.632Z,12.67
2018-04-07T07:58:50.274Z,12.71
2018-04-07T08:01:16.955Z,12.66
2018-04-07T08:03:43.380Z,12.62
2018-04-07T08:06:09.833Z,12.73
2018-04-07T08:08:36.370Z,12.97
2018-04-07T08:11:03.320Z,13.07
2018-04-07T08:13:29.920Z,13.36
2018-04-07T08:15:56.688Z,13.42
2018-04-07T08:18:23.213Z,13.88
2018-04-07T08:20:50.003Z,14.15
2018-04-07T08:23:16.753Z,13.83
2018-04-07T08:25:43.436Z,13.71
2018-04-07T08:28:09.985Z,13.72
2018-04-07T08:30:36.927Z,13.68
2018-04-07T08:33:03.537Z,14.12
2018-04-07T08:35:30.102Z,14.02
2018-04-07T08:37:56.583Z,14.14
2018-04-07T08:40:30.280Z,14.40
2018-04-07T08:43:03.624Z,15.09
2018-04-07T08:45:31.036Z,14.58
2018-04-07T08:47:57.673Z,14.41
2018-04-07T08:50:25.588Z,14.08
2018-04-07T08:52:53.007Z,14.27
2018-04-07T08:55:20.466Z,14.32
2018-04-07T08:57:49.454Z,14.25
2018-04-07T09:00:16.301Z,14.32
2018-04-07T09:02:43.151Z,14.45
2018-04-07T09:05:10.733Z,14.60
2018-04-07T09:07:37.671Z,14.73
2018-04-07T09:10:04.347Z,14.81
2018-04-07T09:12:31.231Z,14.63
2018-04-07T09:14:57.817Z,14.71
2018-04-07T09:17:24.463Z,14.47
2018-04-07T09:19:51.134Z,14.54
2018-04-07T09:22:17.728Z,14.50
2018-04-07T09:24:44.641Z,14.73
2018-04-07T09:27:12.418Z,14.57
2018-04-07T09:29:38.905Z,14.90
2018-04-07T09:32:05.840Z,14.91
2018-04-07T09:34:33.164Z,14.82
2018-04-07T09:36:59.679Z,14.67
2018-04-07T09:39:26.425Z,14.83
2018-04-07T09:41:53.342Z,15.15
2018-04-07T09:44:20.187Z,15.03
2018-04-07T09:46:46.834Z,15.15
2018-04-07T09:49:13.811Z,15.27
2018-04-07T09:51:41.338Z,15.41
2018-04-07T09:54:08.011Z,15.68
2018-04-07T09:56:34.944Z,15.90
2018-04-07T09:59:01.745Z,15.76
2018-04-07T10:01:29.271Z,15.65
2018-04-07T10:03:56.273Z,15.92
2018-04-07T10:06:24.304Z,15.85
2018-04-07T10:08:50.870Z,16.22
2018-04-07T10:11:18.750Z,16.33
2018-04-07T10:13:45.763Z,16.43
2018-04-07T10:16:12.773Z,16.73
2018-04-07T10:18:39.503Z,17.16
2018-04-07T10:21:06.193Z,18.07
2018-04-07T10:23:33.138Z,18.19
2018-04-07T10:26:00.324Z,17.59
2018-04-07T10:28:27.070Z,17.33
2018-04-07T10:30:53.503Z,17.76
2018-04-07T10:33:20.646Z,18.15
2018-04-07T10:35:47.201Z,17.30
2018-04-07T10:38:14.036Z,16.70
2018-04-07T10:40:41.393Z,17.77
2018-04-07T10:43:11.134Z,18.39
2018-04-07T10:45:39.451Z,18.75
2018-04-07T10:48:06.544Z,18.87
2018-04-07T10:50:36.441Z,19.51
2018-04-07T10:53:03.226Z,19.89
2018-04-07T10:55:30.393Z,19.56
2018-04-07T10:57:57.032Z,18.61
2018-04-07T11:00:25.775Z,17.91
2018-04-07T11:02:53.739Z,17.26
2018-04-07T11:05:20.394Z,17.63
2018-04-07T11:07:47.215Z,17.99
2018-04-07T11:10:13.796Z,18.43
2018-04-07T11:12:40.369Z,18.69
2018-04-07T11:15:06.818Z,18.83
2018-04-07T11:17:34.353Z,18.61
2018-04-07T11:20:00.779Z,18.59
2018-04-07T11:22:27.237Z,18.90
2018-04-07T11:24:53.745Z,18.50
2018-04-07T11:27:21.143Z,18.59
2018-04-07T11:29:49.627Z,18.19
2018-04-07T11:32:16.318Z,18.45
2018-04-07T11:34:43.018Z,18.47
2018-04-07T11:37:10.070Z,18.44
2018-04-07T11:39:38.127Z,18.14
2018-04-07T11:42:04.634Z,17.96
2018-04-07T11:44:31.304Z,17.92
2018-04-07T11:46:58.445Z,17.87
2018-04-07T11:49:25.572Z,17.70
2018-04-07T11:51:52.246Z,17.81
2018-04-07T11:54:18.886Z,18.14
2018-04-07T11:56:47.427Z,18.61
2018-04-07T11:59:14.685Z,19.21
2018-04-07T12:01:41.886Z,19.77
2018-04-07T12:04:10.182Z,19.76
2018-04-07T12:06:37.712Z,19.44
2018-04-07T12:09:05.364Z,19.87
2018-04-07T12:11:32.010Z,20.09
2018-04-07T12:13:58.681Z,19.43
2018-04-07T12:16:26.183Z,18.73
2018-04-07T12:18:52.738Z,18.42
2018-04-07T12:21:19.910Z,18.66
2018-04-07T12:23:46.845Z,18.70
2018-04-07T12:26:14.065Z,18.94
2018-04-07T12:28:42.204Z,19.10
2018-04-07T12:31:09.018Z,19.28
2018-04-07T12:33:35.630Z,19.84
2018-04-07T12:36:02.695Z,20.22
2018-04-07T12:38:29.258Z,20.17
2018-04-07T12:40:55.879Z,19.75
2018-04-07T12:43:23.029Z,20.05
2018-04-07T12:45:50.937Z,19.98
2018-04-07T12:48:18.248Z,19.90
2018-04-07T12:50:45.638Z,20.06
2018-04-07T12:53:13.711Z,19.52
2018-04-07T12:55:40.259Z,19.49
2018-04-07T12:58:07.254Z,19.55
2018-04-07T13:00:35.117Z,19.27
2018-04-07T13:03:03.480Z,19.06
2018-04-07T13:05:30.652Z,19.17
2018-04-07T13:07:57.643Z,19.35
2018-04-07T13:10:24.760Z,19.90
2018-04-07T13:12:51.245Z,19.54
2018-04-07T13:15:17.940Z,19.09
2018-04-07T13:17:45.885Z,18.74
2018-04-07T13:20:13.148Z,18.80
2018-04-07T13:22:40.451Z,18.75
2018-04-07T13:25:07.749Z,18.73
2018-04-07T13:27:34.459Z,18.84
2018-04-07T13:30:00.978Z,19.05
2018-04-07T13:32:27.823Z,19.08
2018-04-07T13:34:55.471Z,19.13
2018-04-07T13:37:23.179Z,18.77
2018-04-07T13:39:52.159Z,18.67
2018-04-07T13:42:19.910Z,18.30
2018-04-07T13:44:46.589Z,18.63
2018-04-07T13:47:13.583Z,18.82
2018-04-07T13:49:40.313Z,18.63
2018-04-07T13:52:07.199Z,18.77
2018-04-07T13:54:33.971Z,18.62
2018-04-07T13:57:01.111Z,18.65
2018-04-07T13:59:28.038Z,18.85
2018-04-07T14:01:54.808Z,18.91
2018-04-07T14:04:21.731Z,18.80
2018-04-07T14:06:48.386Z,18.90
2018-04-07T14:09:15.882Z,18.69
2018-04-07T14:11:43.320Z,18.80
2018-04-07T14:14:10.060Z,18.62
2018-04-07T14:16:36.675Z,18.38
2018-04-07T14:19:03.940Z,18.42
2018-04-07T14:21:31.027Z,17.95
2018-04-07T14:23:58.429Z,17.88
2018-04-07T14:26:25.357Z,17.99
2018-04-07T14:28:52.008Z,17.87
2018-04-07T14:31:19.448Z,17.92
2018-04-07T14:33:46.201Z,17.73
2018-04-07T14:36:13.113Z,17.63
2018-04-07T14:38:39.753Z,17.43
2018-04-07T14:41:07.055Z,17.25
2018-04-07T14:43:33.921Z,17.02
2018-04-07T14:46:01.156Z,16.78
2018-04-07T14:48:28.456Z,16.67
2018-04-07T14:50:55.156Z,16.45
2018-04-07T14:53:22.390Z,16.42
2018-04-07T14:55:49.435Z,16.10
2018-04-07T14:58:15.947Z,15.90
2018-04-07T15:00:42.387Z,15.88
2018-04-07T15:03:09.343Z,15.83
2018-04-07T15:05:36.258Z,15.72
2018-04-07T15:08:03.043Z,15.66
2018-04-07T15:10:34.237Z,15.51
2018-04-07T15:13:01.930Z,15.51
2018-04-07T15:15:28.595Z,15.55
2018-04-07T15:17:56.507Z,15.55
2018-04-07T15:20:24.012Z,15.45
2018-04-07T15:22:53.227Z,15.45
2018-04-07T15:25:19.852Z,15.35
2018-04-07T15:27:47.346Z,15.33
2018-04-07T15:30:17.527Z,15.27
2018-04-07T15:32:44.816Z,15.17
2018-04-07T15:35:12.231Z,15.12
2018-04-07T15:37:38.944Z,15.03
2018-04-07T15:40:05.851Z,15.06
2018-04-07T15:42:35.347Z,14.93
2018-04-07T15:45:04.120Z,14.90
2018-04-07T15:47:31.094Z,14.88
2018-04-07T15:49:58.156Z,14.86
2018-04-07T15:52:25.138Z,14.81
2018-04-07T15:54:54.369Z,14.87
2018-04-07T15:57:24.293Z,14.78
2018-04-07T15:59:53.215Z,14.72
2018-04-07T16:02:24.188Z,14.68
2018-04-07T16:04:51.418Z,14.74
2018-04-07T16:07:19.351Z,14.64
2018-04-07T16:09:46.341Z,14.61
2018-04-07T16:12:14.087Z,14.57
2018-04-07T16:14:42.597Z,14.46
2018-04-07T16:17:12.748Z,14.41
2018-04-07T16:19:54.148Z,14.31
2018-04-07T16:22:22.186Z,14.13
2018-04-07T16:24:50.682Z,14.20
2018-04-07T16:27:18.267Z,14.00
2018-04-07T16:29:44.998Z,13.80
2018-04-07T16:32:11.812Z,13.64
2018-04-07T16:34:38.500Z,13.46
2018-04-07T16:37:05.551Z,13.32
2018-04-07T16:39:33.052Z,13.24
2018-04-07T16:42:00.729Z,13.06
2018-04-07T16:44:29.156Z,12.84
2018-04-07T16:46:57.029Z,12.74
2018-04-07T16:49:24.887Z,12.65
2018-04-07T16:51:51.467Z,12.60
2018-04-07T16:54:18.532Z,12.63
2018-04-07T16:56:45.642Z,12.67
2018-04-07T16:59:12.291Z,12.59
2018-04-07T17:01:39.134Z,12.38
2018-04-07T17:04:11.429Z,12.06
2018-04-07T17:06:38.913Z,11.88
2018-04-07T17:09:07.043Z,11.81
2018-04-07T17:11:34.512Z,11.58
2018-04-07T17:14:02.685Z,11.41
2018-04-07T17:16:31.111Z,11.33
2018-04-07T17:18:58.261Z,11.30
2018-04-07T17:21:25.936Z,11.04
2018-04-07T17:23:53.201Z,10.91
2018-04-07T17:26:21.507Z,10.82
2018-04-07T17:28:49.530Z,10.72
2018-04-07T17:31:16.325Z,10.61
2018-04-07T17:33:43.527Z,10.44
2018-04-07T17:36:11.126Z,10.32
2018-04-07T17:38:39.110Z,10.20
2018-04-07T17:41:07.052Z,10.15
2018-04-07T17:43:37.205Z,10.05
2018-04-07T17:46:04.865Z,9.98
2018-04-07T17:48:32.710Z,9.97
2018-04-07T17:50:59.610Z,9.91
2018-04-07T17:53:26.456Z,9.84
2018-04-07T17:55:53.423Z,9.76
2018-04-07T17:58:19.997Z,9.63
2018-04-07T18:00:46.784Z,9.52
2018-04-07T18:03:15.063Z,9.48
2018-04-07T18:05:42.707Z,9.51
2018-04-07T18:08:09.675Z,9.45
2018-04-07T18:10:37.382Z,9.43
2018-04-07T18:13:05.209Z,9.43
2018-04-07T18:15:31.932Z,9.55
2018-04-07T18:17:59.242Z,9.50
2018-04-07T18:20:26.314Z,9.49
2018-04-07T18:22:54.235Z,9.44
2018-04-07T18:25:23.915Z,9.31
2018-04-07T18:27:51.391Z,9.21
2018-04-07T18:30:18.706Z,9.20
2018-04-07T18:32:46.147Z,9.13
2018-04-07T18:35:13.980Z,9.07
2018-04-07T18:37:40.989Z,8.98
2018-04-07T18:40:08.468Z,8.83
2018-04-07T18:42:35.370Z,8.76
2018-04-07T18:45:04.737Z,8.78
2018-04-07T18:47:32.836Z,8.80
2018-04-07T18:50:00.216Z,8.86
2018-04-07T18:52:27.304Z,8.82
2018-04-07T18:54:57.532Z,8.67
2018-04-07T18:57:25.850Z,8.63
2018-04-07T18:59:54.176Z,8.59
2018-04-07T19:02:22.565Z,8.56
2018-04-07T19:04:49.714Z,8.63
2018-04-07T19:07:18.386Z,8.68
2018-04-07T19:09:49.824Z,8.59
2018-04-07T19:12:18.085Z,8.62
2018-04-07T19:14:47.642Z,8.59
2018-04-07T19:17:15.645Z,8.62
2018-04-07T19:19:43.930Z,8.71
2018-04-07T19:22:12.449Z,8.79
2018-04-07T19:24:41.598Z,8.83
2018-04-07T19:27:08.139Z,8.79
2018-04-07T19:29:35.761Z,8.72
2018-04-07T19:32:03.700Z,8.70
2018-04-07T19:34:31.475Z,8.82
2018-04-07T19:37:02.949Z,8.95
2018-04-07T19:39:29.709Z,9.12
2018-04-07T19:41:56.660Z,9.43
2018-04-07T19:44:23.635Z,9.22
2018-04-07T19:46:50.186Z,9.16
2018-04-07T19:49:16.731Z,8.99
2018-04-07T19:51:43.712Z,8.98
2018-04-07T19:54:10.340Z,9.37
2018-04-07T19:56:37.391Z,9.49
2018-04-07T19:59:04.119Z,9.38
2018-04-07T20:01:31.455Z,9.40
2018-04-07T20:03:58.953Z,9.25
2018-04-07T20:06:25.532Z,9.15
2018-04-07T20:08:53.158Z,9.41
2018-04-07T20:11:19.995Z,9.45
2018-04-07T20:13:46.641Z,9.45
2018-04-07T20:16:13.296Z,9.54
2018-04-07T20:18:39.897Z,9.50
2018-04-07T20:21:06.718Z,9.45
2018-04-07T20:23:33.526Z,9.52
2018-04-07T20:26:00.589Z,9.44
2018-04-07T20:28:27.079Z,9.39
2018-04-07T20:30:53.778Z,9.28
2018-04-07T20:33:20.541Z,9.35
2018-04-07T20:35:47.129Z,9.45
2018-04-07T20:38:13.785Z,9.36
2018-04-07T20:40:40.360Z,9.34
2018-04-07T20:43:12.825Z,9.54
2018-04-07T20:45:39.714Z,9.41
2018-04-07T20:48:06.193Z,9.23
2018-04-07T20:50:32.734Z,9.21
2018-04-07T20:52:59.477Z,9.54
2018-04-07T20:55:25.981Z,9.52
2018-04-07T20:57:52.499Z,9.27
2018-04-07T21:00:19.033Z,8.99
2018-04-07T21:02:45.545Z,8.69
2018-04-07T21:05:11.946Z,8.53
2018-04-07T21:07:38.388Z,8.46
2018-04-07T21:10:04.975Z,8.62
2018-04-07T21:12:31.390Z,8.88
2018-04-07T21:14:57.752Z,8.56
2018-04-07T21:17:24.096Z,8.32
2018-04-07T21:19:50.533Z,8.21
2018-04-07T21:22:17.007Z,8.07
2018-04-07T21:24:43.624Z,8.46
2018-04-07T21:27:10.079Z,8.39
2018-04-07T21:29:36.536Z,8.03
2018-04-07T21:32:02.931Z,7.75
2018-04-07T21:34:29.476Z,7.91
2018-04-07T21:36:56.391Z,7.95
2018-04-07T21:39:22.818Z,7.80
2018-04-07T21:41:49.386Z,7.69
2018-04-07T21:44:16.713Z,7.60
2018-04-07T21:46:43.098Z,7.67
2018-04-07T21:49:09.457Z,7.52
2018-04-07T21:51:35.969Z,7.40
2018-04-07T21:54:02.399Z,7.32
2018-04-07T21:56:28.864Z,7.28
2018-04-07T21:58:55.341Z,7.23
2018-04-07T22:01:21.799Z,7.20
2018-04-07T22:03:48.239Z,7.16
2018-04-07T22:06:14.975Z,7.06
2018-04-07T22:08:41.824Z,7.04
2018-04-07T22:11:08.816Z,7.01
2018-04-07T22:13:35.267Z,7.06
2018-04-07T22:16:01.891Z,7.07
2018-04-07T22:18:28.537Z,6.92
2018-04-07T22:20:55.018Z,6.84
2018-04-07T22:23:21.453Z,7.16
2018-04-07T22:25:48.040Z,7.02
2018-04-07T22:28:14.469Z,6.87
2018-04-07T22:30:40.884Z,6.82
2018-04-07T22:33:07.362Z,6.99
2018-04-07T22:35:33.881Z,6.94
2018-04-07T22:38:00.343Z,6.84
2018-04-07T22:40:28.509Z,6.70
2018-04-07T22:42:55.003Z,6.81
2018-04-07T22:45:21.460Z,7.08
2018-04-07T22:47:48.005Z,7.01
2018-04-07T22:50:14.463Z,7.09
2018-04-07T22:52:40.913Z,7.18
2018-04-07T22:55:07.394Z,6.95
2018-04-07T22:57:33.781Z,6.94
2018-04-07T23:00:00.161Z,6.86
2018-04-07T23:02:26.722Z,6.89
2018-04-07T23:04:53.145Z,7.08
2018-04-07T23:07:19.539Z,6.90
2018-04-07T23:09:46.044Z,7.07
2018-04-07T23:12:12.550Z,7.20
2018-04-07T23:14:39.014Z,6.91
2018-04-07T23:17:05.453Z,6.78
2018-04-07T23:19:31.806Z,6.96
2018-04-07T23:21:58.171Z,6.89
2018-04-07T23:24:24.609Z,6.85
2018-04-07T23:26:50.983Z,6.71
2018-04-07T23:29:17.342Z,6.49
2018-04-07T23:31:43.735Z,6.82
2018-04-07T23:34:10.122Z,6.94
2018-04-07T23:36:36.542Z,6.83
2018-04-07T23:39:03.212Z,6.69
2018-04-07T23:41:29.597Z,6.87
2018-04-07T23:43:56.037Z,6.97
2018-04-07T23:46:22.457Z,6.69
2018-04-07T23:48:48.832Z,6.61
2018-04-07T23:51:15.257Z,6.84
2018-04-07T23:53:41.724Z,6.92
2018-04-07T23:56:08.105Z,7.02
2018-04-07T23:58:34.561Z,7.07
